Zacata, Virginia
Current Conditions -  °F | °C
As of 8:22 PM on Monday 22 Dec 2014 (Local Time) from K2W6 Reporting Station
Overcast Overcast  
Wind Chill: 32°   Ceiling: 300
Heat Index: 36°   Visibility: 2.5mi
Dew Point: 34°   Wind: 5mph
Humidity: 93%   Direction: 360°N
Pressure: 30.13"   Gusts: NA
Location:  38.12°N, 76.78°W
Report Text: K2W6 230122Z AUTO 36004KT 2 1/2SM OVC003 02/01 A3013 RMK AO1
Loading
Personal Weather Stations






























Interactive Weather Map New forecast layout! Learn more

10-Day Weather Forecast

Advertisements
Track Severe Weather on mobile